Weather at Pond Road Heliport

Public forecast

Using degrees Fahrenheit for public forecast. Weather courtesy of forecast.io.

Closest aviation weather report (METAR) to Pond Road Heliport

Closest report is Beverly Regional Airport, 12.4 nm (22.9 km) WSW. Retrieved 2020/12/01 04:14 UTC (25 minutes ago):

KBVY 010414Z AUTO 15017G24KT 4SM -RA BR OVC014 16/14 A2955 RMK AO2 P0001 T01560139

Closest aviation forecast (TAF) to Pond Road Heliport

Closest forecast is General Edward Lawrence Logan International Airport, 22.5 nm (41.7 km) SW. Retrieved 2020-12-01 00:30 UTC (4 hours ago):

TAF KBOS 302324Z 0100/0206 15023G49KT 6SM -RA BR OVC025 FM010500 17018G28KT 3SM BR VCSH OVC008 FM011000 16011G17KT P6SM BKN008 FM011600 18012G24KT P6SM BKN020 FM011900 19014G26KT P6SM BKN060 FM012200 21014G23KT P6SM SCT200